• Join FlightAware (Why Join?)
  • Login
  • US Flag 
11:01PM EDT


 

Airport Tracker/Info


-or-


 

Live Flight TrackerFlight Track Log ✈ JBU572 ✈ 23-Apr-2013 ✈ KPBI - KHPN

Flight Track Log - Related Links

Times and Time Zones

All times are in EDT time to prevent confusion due to time zone crossing. See the JBU572 flight status page for this flight to view local times or setup timezone preferences in your user account.

Time Position Orientation Groundspeed Altitude Reporting Facility
EDT Latitude Longitude Course Direction KTS MPH feet Rate Location/Type
08:10AM 26.7219 -79.9639 53° Northeast 231 266 4,800  Level Miami Center
08:11AM 26.9311 -79.6769 55° Northeast  Level FlightAware Approximate
08:11AM 26.7819 -79.8981 44° Northeast 262 302 7,900  Level Miami Center
08:12AM 26.9992 -79.5680 55° Northeast  Level FlightAware Approximate
08:12AM 26.8375 -79.8344 46° Northeast 281 323 10,500  Level Miami Center
08:13AM 27.0677 -79.4594 56° Northeast  Level FlightAware Approximate
08:13AM 26.8956 -79.7497 52° Northeast 311 358 11,700  Level Miami Center
08:14AM 27.1354 -79.3500 55° Northeast  Level FlightAware Approximate
08:14AM 26.9517 -79.6647 53° Northeast 362 417 13,900  Level Miami Center
08:15AM 27.2118 -79.2490 53° Northeast  Level FlightAware Approximate
08:15AM 27.0139 -79.5661 55° Northeast 386 444 15,800  Level Miami Center
08:16AM 27.0869 -79.4533 54° Northeast 394 453 17,800 1,800 Climbing Miami Center
08:17AM 27.1558 -79.3475 54° Northeast 415 478 19,500 1,680 Climbing Miami Center
08:18AM 27.2286 -79.2369 53° Northeast 426 490 21,200 1,560 Climbing Miami Center
08:19AM 27.2886 -79.1378 56° Northeast 426 490 22,700 1,440 Climbing Miami Center
08:20AM 27.3778 -79.0436 43° Northeast 432 497 24,100 1,440 Climbing Miami Center
08:21AM 27.5056 -79.0156 11° North 399 459 25,600 1,320 Climbing Miami Center
08:22AM 27.6250 -78.9897 11° North 421 484 26,800 1,080 Climbing Miami Center
08:23AM 27.7319 -78.9658 11° North 434 499 27,800 960 Climbing Miami Center
08:24AM 27.8517 -78.9186 19° North 439 505 28,800 1,080 Climbing Miami Center
08:25AM 27.9692 -78.8667 21° North 444 511 30,000 1,140 Climbing Miami Center
08:26AM 28.0869 -78.8147 21° North 444 511 31,100 960 Climbing Miami Center
08:27AM 28.2003 -78.7647 21° North 444 511 32,000 1,020 Climbing Miami Center
08:28AM 28.3197 -78.7386 11° North 444 511 33,200 900 Climbing Miami Center
08:29AM 28.4431 -78.7169 North 432 497 33,900 660 Climbing Miami Center
08:30AM 28.5622 -78.6931 10° North 432 497 34,600 540 Climbing Miami Center
08:31AM 28.6836 -78.6714 North 432 497 35,000 180 Climbing Miami Center
08:32AM 28.8028 -78.6472 10° North 431 496 35,000  Level Miami Center
08:33AM 28.9264 -78.6206 11° North 443 510 35,000  Level Miami Center
08:34AM 29.0539 -78.5989 North 449 517 35,000  Level Miami Center
08:35AM 29.1753 -78.5725 11° North 449 517 35,000  Level Miami Center
08:36AM 29.2986 -78.5481 10° North 449 517 35,000  Level Miami Center
08:37AM 29.4261 -78.5239 North 442 509 35,000  Level Miami Center
08:38AM 29.5536 -78.5019 North 454 522 35,000  Level Miami Center
08:38AM 29.6453 -78.4769 13° North 455 524 35,000  Level Jacksonville Center
08:39AM 29.7633 -78.4500 11° North 432 497 35,000 -60 Level Jacksonville Center
08:40AM 29.8856 -78.4228 11° North 438 504 34,900 -60 Descending Jacksonville Center
08:41AM 30.0186 -78.4072 North 448 516 34,900  Level Jacksonville Center
08:42AM 30.1450 -78.3844 North 453 521 35,000  Climbing Jacksonville Center
08:43AM 30.2611 -78.3572 11° North 445 512 35,000  Level Jacksonville Center
08:44AM 30.3917 -78.3319 North 453 521 35,000  Level Jacksonville Center
08:45AM 30.5222 -78.3064 10° North 458 527 35,000  Level Jacksonville Center
08:46AM 30.6422 -78.2814 10° North 466 536 35,000  Level Jacksonville Center
08:47AM 30.7667 -78.2558 10° North 455 524 35,000  Level Jacksonville Center
08:48AM 30.8908 -78.2281 11° North 458 527 35,000  Level Jacksonville Center
08:49AM 31.0069 -78.2103 North 443 510 35,000  Level Jacksonville Center
08:50AM 31.1311 -78.1797 12° North 443 510 35,000  Level Jacksonville Center
08:51AM 31.2575 -78.1514 11° North 448 516 35,000  Level Jacksonville Center
08:52AM 31.3817 -78.1233 11° North 448 516 35,000  Level Jacksonville Center
08:53AM 31.5039 -78.1025 North 448 516 35,000  Level Jacksonville Center
08:54AM 31.6261 -78.0767 10° North 448 516 35,000 -60 Level Jacksonville Center
08:55AM 31.7475 -78.0264 19° North 448 516 34,900 -60 Descending Jacksonville Center
08:56AM 31.8669 -77.9858 16° North 448 516 34,900  Level Jacksonville Center
08:57AM 31.9925 -77.9400 17° North 453 521 34,900  Level Jacksonville Center
08:58AM 32.1139 -77.8942 18° North 458 527 35,000  Climbing Jacksonville Center
08:59AM 32.2392 -77.8481 17° North 458 527 35,000  Level Jacksonville Center
09:00AM 32.3628 -77.8019 17° North 458 527 35,000  Level Jacksonville Center
09:01AM 32.4858 -77.7531 19° North 458 527 35,000  Level Jacksonville Center
09:02AM 32.6072 -77.7067 18° North 453 521 35,000 -60 Level Jacksonville Center
09:03AM 32.7261 -77.6581 19° North 453 521 34,900 -60 Descending Jacksonville Center
09:06AM 33.0211 -77.5456 18° North 452 520 34,900  Level Washington Center
09:07AM 33.1428 -77.4986 18° North 446 513 35,000  Climbing Washington Center
09:08AM 33.2644 -77.4517 18° North 451 519 35,000  Level Washington Center
09:09AM 33.4008 -77.4000 18° North 451 519 35,000  Level Washington Center
09:10AM 33.5247 -77.3531 18° North 451 519 35,000  Level Washington Center
09:11AM 33.6464 -77.3031 19° North 451 519 35,000  Level Washington Center
09:12AM 33.7744 -77.2533 18° North 461 531 35,000 -60 Level Washington Center
09:13AM 33.8961 -77.2033 19° North 461 531 34,900 -60 Descending Washington Center
09:14AM 34.0219 -77.1531 18° North 461 531 34,900  Level Washington Center
09:15AM 34.1478 -77.1053 17° North 467 537 35,000  Climbing Washington Center
09:16AM 34.2756 -77.0547 18° North 467 537 35,000  Level Washington Center
09:17AM 34.3992 -77.0042 19° North 467 537 35,000 -60 Level Washington Center
09:18AM 34.5272 -76.9533 18° North 473 544 34,900  Descending Washington Center
09:19AM 34.6550 -76.9025 18° North 473 544 35,000  Climbing Washington Center
09:20AM 34.7808 -76.8489 19° North 473 544 34,900  Descending Washington Center
09:21AM 34.9106 -76.8003 17° North 473 544 35,000  Climbing Washington Center
09:22AM 35.0406 -76.7489 18° North 479 551 35,000  Level Washington Center
09:23AM 35.1683 -76.6922 20° North 484 557 35,000  Level Washington Center
09:24AM 35.3003 -76.6406 18° North 484 557 35,000  Level Washington Center
09:25AM 35.4175 -76.5886 20° North 489 563 35,000  Level Washington Center
09:26AM 35.5492 -76.5392 17° North 489 563 35,000  Level Washington Center
09:27AM 35.6792 -76.4794 20° North 489 563 35,000  Level Washington Center
09:28AM 35.8131 -76.4244 18° North 489 563 35,000  Level Washington Center
09:29AM 35.9469 -76.3694 18° North 494 568 35,000 -60 Level Washington Center
09:30AM 36.0786 -76.3194 17° North 494 568 34,900 -60 Descending Washington Center
09:31AM 36.2106 -76.2586 20° North 494 568 34,900 60 Level Washington Center
09:32AM 36.3444 -76.2058 18° North 500 575 35,100 840 Climbing Washington Center
09:33AM 36.4803 -76.1475 19° North 505 581 36,600 900 Climbing Washington Center
09:34AM 36.6119 -76.0939 18° North 499 574 37,000 180 Climbing Washington Center
09:35AM 36.7394 -76.0378 19° North 493 567 37,000  Level Washington Center
09:36AM 36.8731 -75.9789 19° North 493 567 37,000 -60 Level Washington Center
09:37AM 37.0297 -75.9144 18° North 520 598 36,900  Descending Washington Center
09:38AM 37.1633 -75.8578 19° North 515 593 37,000  Climbing Washington Center
09:39AM 37.2992 -75.8008 18° North 515 593 37,000  Level Washington Center
09:40AM 37.4328 -75.7408 20° North 510 587 37,000  Level Washington Center
09:41AM 37.5661 -75.6836 19° North 500 575 37,000 -60 Level Washington Center
09:42AM 37.6997 -75.6258 19° North 500 575 36,900 -60 Descending Washington Center
09:43AM 37.8311 -75.5681 19° North 500 575 36,900  Level Washington Center
09:44AM 37.9686 -75.5075 19° North 500 575 37,000  Climbing Washington Center
09:45AM 38.1000 -75.4414 22° Northeast 500 575 37,000  Level Washington Center
09:46AM 38.2292 -75.3617 26° Northeast 505 581 37,000  Level Washington Center
09:47AM 38.3436 -75.2872 27° Northeast 505 581 37,000  Level Washington Center
09:48AM 38.4728 -75.2097 25° Northeast 505 581 37,000 -60 Level Washington Center
09:49AM 38.5997 -75.1242 28° Northeast 510 587 36,900  Descending Washington Center
09:50AM 38.7286 -75.0381 28° Northeast 510 587 37,000  Climbing Washington Center
09:51AM 38.8594 -74.9544 26° Northeast 515 593 37,000 -540 Level Washington Center
09:52AM 39.0047 -74.8597 27° Northeast 520 598 36,000 -1,020 Descending Washington Center
09:53AM 39.1272 -74.7647 31° Northeast 520 598 35,000 -960 Descending Washington Center
09:54AM 39.2408 -74.6508 38° Northeast 514 592 34,100 -1,140 Descending Washington Center
09:55AM 39.3078 -74.5836 38° Northeast 515 593 33,100 -2,340 Descending New York Center
09:56AM 39.4197 -74.4686 38° Northeast 542 624 30,100 -3,300 Descending New York Center
09:57AM 39.5297 -74.3533 39° Northeast 522 601 26,400 -3,180 Descending New York Center
09:58AM 39.6308 -74.2453 39° Northeast 494 568 23,900 -1,740 Descending New York Center
09:59AM 39.7256 -74.1447 39° Northeast 458 527 23,000 -480 Descending New York Center
10:00AM 39.8181 -74.0492 38° Northeast 435 501 23,000 -240 Level New York Center
10:01AM 39.9656 -73.8856 40° Northeast 462 532 22,400 -780 Descending Boston Center
10:02AM 40.0561 -73.7928 38° Northeast 433 498 21,000 -1,380 Descending Boston Center
10:03AM 40.1406 -73.6994 40° Northeast 408 470 19,700 -1,440 Descending Boston Center
10:04AM 40.2333 -73.6033 38° Northeast 390 449 18,200 -1,200 Descending Boston Center
10:05AM 40.3114 -73.5206 39° Northeast 374 430 17,300 -600 Descending Boston Center
10:06AM 40.3911 -73.4508 34° Northeast 356 410 17,000 -180 Descending Boston Center
10:07AM 40.4872 -73.4169 15° North 341 392 17,000 -420 Level Boston Center
10:08AM 40.5667 -73.3833 18° North 353 406 16,300 -900 Descending New York TRACON
10:09AM 40.6667 -73.3500 14° North 351 404 15,300 -660 Descending New York TRACON
10:10AM 40.7500 -73.3167 17° North 321 369 15,000 -360 Descending New York TRACON
10:11AM 40.8167 -73.2500 37° Northeast 319 367 14,600 -1,080 Descending New York TRACON
10:12AM 40.8667 -73.1500 57° Northeast 346 398 12,900 -1,500 Descending New York TRACON
10:13AM 40.9167 -73.0667 52° Northeast 305 351 11,600 -1,800 Descending New York TRACON
10:14AM 40.9667 -73.0000 45° Northeast 301 346 9,300 -2,400 Descending New York TRACON
10:15AM 41.0167 -73.0833 309° West 289 333 6,900 -1,680 Descending New York TRACON
10:16AM 41.0500 -73.1667 298° West 271 312 6,000 -840 Descending New York TRACON
10:17AM 41.0833 -73.2500 298° West 233 268 5,300 -600 Descending New York TRACON
10:18AM 41.1167 -73.3167 304° West 229 264 4,900 -660 Descending New York TRACON
10:19AM 41.1000 -73.4000 255° West 230 265 4,000 -600 Descending New York TRACON
10:20AM 41.0667 -73.4667 236° Southwest 223 257 3,800 -840 Descending New York TRACON
10:21AM 41.0167 -73.5333 225° Southwest 223 257 2,300 -840 Descending New York TRACON
10:22AM 40.9833 -73.5833 229° Southwest 218 251 2,100 -180 Descending New York TRACON
10:23AM 40.9833 -73.6500 270° West 204 235 2,000 -420 Descending New York TRACON
10:24AM 41.0167 -73.6667 339° North 169 194 1,300 -720 Descending New York TRACON
10:25AM 41.0500 -73.7000 323° Northwest 130 150 600 -780 Descending New York TRACON